sensor_id;sensor_type;location;lat;lon;timestamp;pressure;altitude;pressure_sealevel;temperature;humidity
22206;BME280;11272;50.104;8.754;2023-02-12T00:01:44;102705.50;;;8.14;71.62
22206;BME280;11272;50.104;8.754;2023-02-12T00:04:09;102713.38;;;8.12;71.68
22206;BME280;11272;50.104;8.754;2023-02-12T00:06:37;102714.28;;;8.13;71.46
22206;BME280;11272;50.104;8.754;2023-02-12T00:09:04;102716.94;;;8.13;71.70
22206;BME280;11272;50.104;8.754;2023-02-12T00:11:29;102715.16;;;8.12;71.82
22206;BME280;11272;50.104;8.754;2023-02-12T00:13:56;102722.22;;;8.11;71.79
22206;BME280;11272;50.104;8.754;2023-02-12T00:16:25;102725.78;;;8.13;72.03
22206;BME280;11272;50.104;8.754;2023-02-12T00:18:52;102714.28;;;8.13;71.94
22206;BME280;11272;50.104;8.754;2023-02-12T00:21:19;102702.81;;;8.12;71.79
22206;BME280;11272;50.104;8.754;2023-02-12T00:23:44;102710.72;;;8.11;71.73
22206;BME280;11272;50.104;8.754;2023-02-12T00:26:13;102708.03;;;8.09;71.84
22206;BME280;11272;50.104;8.754;2023-02-12T00:28:44;102712.38;;;8.06;71.93
22206;BME280;11272;50.104;8.754;2023-02-12T00:31:13;102714.97;;;8.04;71.51
22206;BME280;11272;50.104;8.754;2023-02-12T00:33:40;102714.00;;;8.02;71.64
22206;BME280;11272;50.104;8.754;2023-02-12T00:36:06;102709.59;;;8.01;71.95
22206;BME280;11272;50.104;8.754;2023-02-12T00:38:32;102720.19;;;8.01;71.62
22206;BME280;11272;50.104;8.754;2023-02-12T00:40:57;102711.31;;;7.99;71.75
22206;BME280;11272;50.104;8.754;2023-02-12T00:43:23;102715.69;;;7.98;71.75
22206;BME280;11272;50.104;8.754;2023-02-12T00:45:49;102712.19;;;7.99;71.77
22206;BME280;11272;50.104;8.754;2023-02-12T00:48:15;102717.50;;;7.99;71.59
22206;BME280;11272;50.104;8.754;2023-02-12T00:50:44;102709.56;;;7.99;71.92
22206;BME280;11272;50.104;8.754;2023-02-12T00:53:09;102709.59;;;8.01;71.60
22206;BME280;11272;50.104;8.754;2023-02-12T00:55:35;102714.00;;;8.00;71.58
22206;BME280;11272;50.104;8.754;2023-02-12T00:58:01;102712.19;;;7.99;71.50
22206;BME280;11272;50.104;8.754;2023-02-12T01:00:27;102707.72;;;7.97;71.77
22206;BME280;11272;50.104;8.754;2023-02-12T01:02:53;102709.44;;;7.95;71.64
22206;BME280;11272;50.104;8.754;2023-02-12T01:05:18;102704.94;;;7.92;71.36
22206;BME280;11272;50.104;8.754;2023-02-12T01:07:51;102703.16;;;7.91;71.22
22206;BME280;11272;50.104;8.754;2023-02-12T01:10:18;102705.78;;;7.90;71.77
22206;BME280;11272;50.104;8.754;2023-02-12T01:12:45;102709.19;;;7.86;71.40
22206;BME280;11272;50.104;8.754;2023-02-12T01:15:12;102714.41;;;7.83;71.87
22206;BME280;11272;50.104;8.754;2023-02-12T01:17:38;102705.50;;;7.81;71.72
22206;BME280;11272;50.104;8.754;2023-02-12T01:20:05;102701.97;;;7.79;71.75
22206;BME280;11272;50.104;8.754;2023-02-12T01:22:35;102710.75;;;7.78;71.68
22206;BME280;11272;50.104;8.754;2023-02-12T01:25:02;102711.69;;;7.80;72.20
22206;BME280;11272;50.104;8.754;2023-02-12T01:27:28;102708.16;;;7.79;72.08
22206;BME280;11272;50.104;8.754;2023-02-12T01:29:55;102708.94;;;7.77;71.86
22206;BME280;11272;50.104;8.754;2023-02-12T01:32:20;102716.81;;;7.75;72.15
22206;BME280;11272;50.104;8.754;2023-02-12T01:34:46;102707.97;;;7.73;71.91
22206;BME280;11272;50.104;8.754;2023-02-12T01:37:11;102720.19;;;7.70;72.21
22206;BME280;11272;50.104;8.754;2023-02-12T01:39:38;102725.41;;;7.67;72.21
22206;BME280;11272;50.104;8.754;2023-02-12T01:42:04;102718.44;;;7.69;72.29
22206;BME280;11272;50.104;8.754;2023-02-12T01:44:32;102721.97;;;7.69;72.10
22206;BME280;11272;50.104;8.754;2023-02-12T01:47:01;102722.78;;;7.67;72.24
22206;BME280;11272;50.104;8.754;2023-02-12T01:49:40;102720.97;;;7.66;72.16
22206;BME280;11272;50.104;8.754;2023-02-12T01:52:16;102711.22;;;7.63;72.50
22206;BME280;11272;50.104;8.754;2023-02-12T01:54:46;102714.84;;;7.67;72.51
22206;BME280;11272;50.104;8.754;2023-02-12T01:57:13;102714.91;;;7.68;72.42
22206;BME280;11272;50.104;8.754;2023-02-12T01:59:41;102721.97;;;7.69;72.29
22206;BME280;11272;50.104;8.754;2023-02-12T02:02:07;102722.84;;;7.70;72.27
22206;BME280;11272;50.104;8.754;2023-02-12T02:04:45;102716.69;;;7.69;72.42
22206;BME280;11272;50.104;8.754;2023-02-12T02:07:13;102720.25;;;7.71;72.35
22206;BME280;11272;50.104;8.754;2023-02-12T02:09:39;102711.41;;;7.71;71.96
22206;BME280;11272;50.104;8.754;2023-02-12T02:12:06;102715.78;;;7.69;72.29
22206;BME280;11272;50.104;8.754;2023-02-12T02:14:53;102714.03;;;7.69;72.25
22206;BME280;11272;50.104;8.754;2023-02-12T02:23:07;102710.50;;;7.69;72.24
22206;BME280;11272;50.104;8.754;2023-02-12T02:31:13;102709.72;;;7.73;72.63
22206;BME280;11272;50.104;8.754;2023-02-12T02:33:58;102697.28;;;7.70;72.83
22206;BME280;11272;50.104;8.754;2023-02-12T02:36:55;102705.22;;;7.69;72.43
22206;BME280;11272;50.104;8.754;2023-02-12T02:42:36;102706.00;;;7.66;72.58
22206;BME280;11272;50.104;8.754;2023-02-12T02:45:10;102699.81;;;7.66;72.75
22206;BME280;11272;50.104;8.754;2023-02-12T02:47:58;102703.31;;;7.65;72.78
22206;BME280;11272;50.104;8.754;2023-02-12T02:50:28;102692.75;;;7.65;72.42
22206;BME280;11272;50.104;8.754;2023-02-12T02:55:24;102701.56;;;7.64;72.83
22206;BME280;11272;50.104;8.754;2023-02-12T02:57:58;102698.91;;;7.64;72.92
22206;BME280;11272;50.104;8.754;2023-02-12T03:00:48;102697.97;;;7.61;72.96
22206;BME280;11272;50.104;8.754;2023-02-12T03:03:31;102698.00;;;7.63;72.87
22206;BME280;11272;50.104;8.754;2023-02-12T03:06:04;102701.63;;;7.67;72.95
22206;BME280;11272;50.104;8.754;2023-02-12T03:08:36;102706.97;;;7.70;73.32
22206;BME280;11272;50.104;8.754;2023-02-12T03:11:14;102708.81;;;7.72;73.15
22206;BME280;11272;50.104;8.754;2023-02-12T03:16:30;102701.78;;;7.73;72.98
22206;BME280;11272;50.104;8.754;2023-02-12T03:19:02;102712.38;;;7.73;73.11
22206;BME280;11272;50.104;8.754;2023-02-12T03:24:33;102707.09;;;7.73;73.22
22206;BME280;11272;50.104;8.754;2023-02-12T03:27:14;102703.47;;;7.71;73.38
22206;BME280;11272;50.104;8.754;2023-02-12T03:29:42;102706.19;;;7.72;72.80
22206;BME280;11272;50.104;8.754;2023-02-12T03:34:52;102712.25;;;7.70;72.94
22206;BME280;11272;50.104;8.754;2023-02-12T03:40:18;102715.69;;;7.66;73.25
22206;BME280;11272;50.104;8.754;2023-02-12T03:42:57;102714.00;;;7.68;73.59
22206;BME280;11272;50.104;8.754;2023-02-12T03:45:44;102704.25;;;7.67;73.59
22206;BME280;11272;50.104;8.754;2023-02-12T03:48:26;102708.69;;;7.68;73.43
22206;BME280;11272;50.104;8.754;2023-02-12T03:51:10;102709.56;;;7.67;73.25
22206;BME280;11272;50.104;8.754;2023-02-12T03:53:40;102712.19;;;7.67;73.08
22206;BME280;11272;50.104;8.754;2023-02-12T03:58:54;102721.97;;;7.69;73.15
22206;BME280;11272;50.104;8.754;2023-02-12T04:01:19;102714.00;;;7.68;73.60
22206;BME280;11272;50.104;8.754;2023-02-12T04:03:45;102722.78;;;7.67;73.40
22206;BME280;11272;50.104;8.754;2023-02-12T04:06:22;102721.94;;;7.68;72.97
22206;BME280;11272;50.104;8.754;2023-02-12T04:08:51;102727.22;;;7.68;73.25
22206;BME280;11272;50.104;8.754;2023-02-12T04:14:15;102732.50;;;7.68;73.41
22206;BME280;11272;50.104;8.754;2023-02-12T04:16:53;102730.81;;;7.71;73.17
22206;BME280;11272;50.104;8.754;2023-02-12T04:19:29;102733.53;;;7.73;73.37
22206;BME280;11272;50.104;8.754;2023-02-12T04:22:23;102737.00;;;7.72;73.74
22206;BME280;11272;50.104;8.754;2023-02-12T04:25:03;102741.41;;;7.71;73.42
22206;BME280;11272;50.104;8.754;2023-02-12T04:30:34;102744.06;;;7.71;73.30
22206;BME280;11272;50.104;8.754;2023-02-12T04:33:03;102742.31;;;7.72;73.60
22206;BME280;11272;50.104;8.754;2023-02-12T04:35:50;102745.84;;;7.72;73.77
22206;BME280;11272;50.104;8.754;2023-02-12T04:38:24;102744.06;;;7.71;73.42
22206;BME280;11272;50.104;8.754;2023-02-12T04:40:51;102742.25;;;7.70;73.64
22206;BME280;11272;50.104;8.754;2023-02-12T04:43:31;102744.00;;;7.70;73.54
22206;BME280;11272;50.104;8.754;2023-02-12T04:45:59;102743.13;;;7.69;73.24
22206;BME280;11272;50.104;8.754;2023-02-12T04:48:25;102742.31;;;7.72;73.66
22206;BME280;11272;50.104;8.754;2023-02-12T04:50:51;102748.50;;;7.72;73.81
22206;BME280;11272;50.104;8.754;2023-02-12T04:53:17;102747.59;;;7.72;73.76
22206;BME280;11272;50.104;8.754;2023-02-12T04:55:43;102754.63;;;7.71;73.70
22206;BME280;11272;50.104;8.754;2023-02-12T04:58:08;102756.34;;;7.69;73.63
22206;BME280;11272;50.104;8.754;2023-02-12T05:00:34;102759.78;;;7.67;73.37
22206;BME280;11272;50.104;8.754;2023-02-12T05:03:00;102752.72;;;7.66;73.41
22206;BME280;11272;50.104;8.754;2023-02-12T05:05:26;102754.44;;;7.64;73.54
22206;BME280;11272;50.104;8.754;2023-02-12T05:07:52;102750.91;;;7.63;73.50
22206;BME280;11272;50.104;8.754;2023-02-12T05:10:17;102747.34;;;7.63;73.60
22206;BME280;11272;50.104;8.754;2023-02-12T05:12:43;102746.34;;;7.59;73.38
22206;BME280;11272;50.104;8.754;2023-02-12T05:15:08;102747.25;;;7.59;73.36
22206;BME280;11272;50.104;8.754;2023-02-12T05:17:34;102747.19;;;7.56;73.62
22206;BME280;11272;50.104;8.754;2023-02-12T05:20:00;102734.81;;;7.55;73.72
22206;BME280;11272;50.104;8.754;2023-02-12T05:22:25;102742.72;;;7.55;73.42
22206;BME280;11272;50.104;8.754;2023-02-12T05:24:51;102733.94;;;7.56;73.54
22206;BME280;11272;50.104;8.754;2023-02-12T05:27:16;102740.09;;;7.55;73.35
22206;BME280;11272;50.104;8.754;2023-02-12T05:29:42;102744.47;;;7.55;73.64
22206;BME280;11272;50.104;8.754;2023-02-12T05:32:07;102737.38;;;7.54;73.81
22206;BME280;11272;50.104;8.754;2023-02-12T05:34:33;102736.50;;;7.53;73.84
22206;BME280;11272;50.104;8.754;2023-02-12T05:36:59;102743.56;;;7.54;73.51
22206;BME280;11272;50.104;8.754;2023-02-12T05:39:24;102740.91;;;7.53;73.79
22206;BME280;11272;50.104;8.754;2023-02-12T05:41:50;102745.31;;;7.52;73.65
22206;BME280;11272;50.104;8.754;2023-02-12T05:44:15;102746.16;;;7.51;73.86
22206;BME280;11272;50.104;8.754;2023-02-12T05:46:41;102742.69;;;7.54;74.04
22206;BME280;11272;50.104;8.754;2023-02-12T05:49:07;102748.84;;;7.53;73.90
22206;BME280;11272;50.104;8.754;2023-02-12T05:51:33;102748.84;;;7.53;74.37
22206;BME280;11272;50.104;8.754;2023-02-12T05:54:01;102750.59;;;7.52;74.30
22206;BME280;11272;50.104;8.754;2023-02-12T05:56:36;102758.53;;;7.52;74.18
22206;BME280;11272;50.104;8.754;2023-02-12T05:59:07;102752.28;;;7.50;74.17
22206;BME280;11272;50.104;8.754;2023-02-12T06:01:35;102755.81;;;7.51;74.38
22206;BME280;11272;50.104;8.754;2023-02-12T06:04:03;102759.38;;;7.51;74.44
22206;BME280;11272;50.104;8.754;2023-02-12T06:06:30;102755.81;;;7.51;74.49
22206;BME280;11272;50.104;8.754;2023-02-12T06:08:57;102759.38;;;7.51;74.63
22206;BME280;11272;50.104;8.754;2023-02-12T06:11:22;102762.84;;;7.50;74.65
22206;BME280;11272;50.104;8.754;2023-02-12T06:13:48;102761.13;;;7.51;74.68
22206;BME280;11272;50.104;8.754;2023-02-12T06:16:17;102761.16;;;7.52;74.43
22206;BME280;11272;50.104;8.754;2023-02-12T06:18:43;102760.28;;;7.52;74.67
22206;BME280;11272;50.104;8.754;2023-02-12T06:21:09;102761.16;;;7.52;74.75
22206;BME280;11272;50.104;8.754;2023-02-12T06:23:34;102767.34;;;7.53;74.61
22206;BME280;11272;50.104;8.754;2023-02-12T06:26:00;102764.72;;;7.53;74.71
22206;BME280;11272;50.104;8.754;2023-02-12T06:28:25;102770.91;;;7.55;74.74
22206;BME280;11272;50.104;8.754;2023-02-12T06:30:52;102774.50;;;7.57;74.72
22206;BME280;11272;50.104;8.754;2023-02-12T06:33:17;102773.69;;;7.59;75.03
22206;BME280;11272;50.104;8.754;2023-02-12T06:35:43;102779.94;;;7.61;74.78
22206;BME280;11272;50.104;8.754;2023-02-12T06:38:09;102777.28;;;7.61;74.76
22206;BME280;11272;50.104;8.754;2023-02-12T06:40:35;102784.38;;;7.63;75.03
22206;BME280;11272;50.104;8.754;2023-02-12T06:43:00;102790.56;;;7.65;74.76
22206;BME280;11272;50.104;8.754;2023-02-12T06:45:26;102789.72;;;7.66;74.79
22206;BME280;11272;50.104;8.754;2023-02-12T06:47:52;102803.81;;;7.65;74.39
22206;BME280;11272;50.104;8.754;2023-02-12T06:50:17;102798.50;;;7.63;74.81
22206;BME280;11272;50.104;8.754;2023-02-12T06:52:43;102801.03;;;7.60;74.79
22206;BME280;11272;50.104;8.754;2023-02-12T06:55:08;102798.38;;;7.58;74.74
22206;BME280;11272;50.104;8.754;2023-02-12T06:57:34;102805.34;;;7.56;75.16
22206;BME280;11272;50.104;8.754;2023-02-12T06:59:59;102796.47;;;7.54;75.12
22206;BME280;11272;50.104;8.754;2023-02-12T07:02:25;102807.88;;;7.53;75.58
22206;BME280;11272;50.104;8.754;2023-02-12T07:04:50;102807.00;;;7.53;75.93
22206;BME280;11272;50.104;8.754;2023-02-12T07:07:16;102809.59;;;7.51;75.95
22206;BME280;11272;50.104;8.754;2023-02-12T07:09:41;102811.34;;;7.51;76.05
22206;BME280;11272;50.104;8.754;2023-02-12T07:12:07;102806.06;;;7.51;76.46
22206;BME280;11272;50.104;8.754;2023-02-12T07:14:33;102810.38;;;7.49;76.62
22206;BME280;11272;50.104;8.754;2023-02-12T07:16:58;102813.00;;;7.47;76.64
22206;BME280;11272;50.104;8.754;2023-02-12T07:19:28;102817.34;;;7.45;76.80
22206;BME280;11272;50.104;8.754;2023-02-12T07:21:54;102817.34;;;7.45;77.16
22206;BME280;11272;50.104;8.754;2023-02-12T07:24:20;102814.69;;;7.45;77.29
22206;BME280;11272;50.104;8.754;2023-02-12T07:26:45;102821.81;;;7.48;77.59
22206;BME280;11272;50.104;8.754;2023-02-12T07:29:11;102815.66;;;7.47;78.01
22206;BME280;11272;50.104;8.754;2023-02-12T07:31:38;102817.41;;;7.48;78.32
22206;BME280;11272;50.104;8.754;2023-02-12T07:34:03;102823.66;;;7.50;78.41
22206;BME280;11272;50.104;8.754;2023-02-12T07:36:31;102827.22;;;7.51;78.74
22206;BME280;11272;50.104;8.754;2023-02-12T07:38:57;102825.53;;;7.53;78.65
22206;BME280;11272;50.104;8.754;2023-02-12T07:41:26;102824.63;;;7.54;78.74
22206;BME280;11272;50.104;8.754;2023-02-12T07:43:54;102827.41;;;7.57;79.34
22206;BME280;11272;50.104;8.754;2023-02-12T07:46:30;102829.19;;;7.58;79.52
22206;BME280;11272;50.104;8.754;2023-02-12T07:48:58;102831.84;;;7.59;79.50
22206;BME280;11272;50.104;8.754;2023-02-12T07:51:25;102832.88;;;7.63;79.77
22206;BME280;11272;50.104;8.754;2023-02-12T07:53:52;102829.34;;;7.64;80.10
22206;BME280;11272;50.104;8.754;2023-02-12T07:56:20;102833.84;;;7.67;80.26
22206;BME280;11272;50.104;8.754;2023-02-12T07:58:47;102834.81;;;7.70;80.18
22206;BME280;11272;50.104;8.754;2023-02-12T08:01:22;102837.59;;;7.75;80.86
22206;BME280;11272;50.104;8.754;2023-02-12T08:03:49;102837.69;;;7.78;80.88
22206;BME280;11272;50.104;8.754;2023-02-12T08:06:19;102836.88;;;7.80;81.12
22206;BME280;11272;50.104;8.754;2023-02-12T08:08:46;102844.00;;;7.83;81.54
22206;BME280;11272;50.104;8.754;2023-02-12T08:11:13;102844.97;;;7.86;81.67
22206;BME280;11272;50.104;8.754;2023-02-12T08:13:40;102842.38;;;7.88;81.53
22206;BME280;11272;50.104;8.754;2023-02-12T08:16:11;102845.09;;;7.91;81.65
22206;BME280;11272;50.104;8.754;2023-02-12T08:18:38;102850.50;;;7.94;82.12
22206;BME280;11272;50.104;8.754;2023-02-12T08:21:09;102844.38;;;7.96;82.28
22206;BME280;11272;50.104;8.754;2023-02-12T08:23:36;102848.03;;;8.00;82.51
22206;BME280;11272;50.104;8.754;2023-02-12T08:26:08;102848.97;;;8.02;82.13
22206;BME280;11272;50.104;8.754;2023-02-12T08:28:35;102848.16;;;8.04;82.60
22206;BME280;11272;50.104;8.754;2023-02-12T08:31:03;102848.22;;;8.08;82.54
22206;BME280;11272;50.104;8.754;2023-02-12T08:33:29;102855.38;;;8.10;82.69
22206;BME280;11272;50.104;8.754;2023-02-12T08:36:07;102850.22;;;8.15;83.21
22206;BME280;11272;50.104;8.754;2023-02-12T08:38:34;102860.00;;;8.17;82.95
22206;BME280;11272;50.104;8.754;2023-02-12T08:41:02;102857.41;;;8.20;82.73
22206;BME280;11272;50.104;8.754;2023-02-12T08:43:28;102860.25;;;8.26;83.08
22206;BME280;11272;50.104;8.754;2023-02-12T08:45:54;102857.75;;;8.31;82.89
22206;BME280;11272;50.104;8.754;2023-02-12T08:48:22;102856.13;;;8.36;83.12
22206;BME280;11272;50.104;8.754;2023-02-12T08:50:48;102864.13;;;8.39;82.93
22206;BME280;11272;50.104;8.754;2023-02-12T08:53:13;102865.97;;;8.41;83.19
22206;BME280;11272;50.104;8.754;2023-02-12T08:55:39;102864.28;;;8.43;83.42
22206;BME280;11272;50.104;8.754;2023-02-12T08:58:04;102867.88;;;8.47;82.75
22206;BME280;11272;50.104;8.754;2023-02-12T09:00:30;102868.84;;;8.51;82.96
22206;BME280;11272;50.104;8.754;2023-02-12T09:02:55;102864.50;;;8.53;82.90
22206;BME280;11272;50.104;8.754;2023-02-12T09:05:21;102873.41;;;8.55;82.96
22206;BME280;11272;50.104;8.754;2023-02-12T09:07:46;102865.47;;;8.55;83.13
22206;BME280;11272;50.104;8.754;2023-02-12T09:10:12;102872.50;;;8.54;82.94
22206;BME280;11272;50.104;8.754;2023-02-12T09:12:38;102880.41;;;8.53;82.53
22206;BME280;11272;50.104;8.754;2023-02-12T09:15:04;102869.69;;;8.50;82.80
22206;BME280;11272;50.104;8.754;2023-02-12T09:17:30;102873.22;;;8.49;82.32
22206;BME280;11272;50.104;8.754;2023-02-12T09:19:55;102880.31;;;8.50;82.45
22206;BME280;11272;50.104;8.754;2023-02-12T09:22:21;102878.59;;;8.52;82.36
22206;BME280;11272;50.104;8.754;2023-02-12T09:24:47;102882.19;;;8.54;82.51
22206;BME280;11272;50.104;8.754;2023-02-12T09:27:12;102878.59;;;8.52;82.24
22206;BME280;11272;50.104;8.754;2023-02-12T09:29:38;102876.81;;;8.51;82.35
22206;BME280;11272;50.104;8.754;2023-02-12T09:32:04;102882.94;;;8.50;81.78
22206;BME280;11272;50.104;8.754;2023-02-12T09:34:34;102880.28;;;8.48;81.80
22206;BME280;11272;50.104;8.754;2023-02-12T09:36:59;102874.16;;;8.51;82.53
22206;BME280;11272;50.104;8.754;2023-02-12T09:39:26;102871.59;;;8.54;82.57
22206;BME280;11272;50.104;8.754;2023-02-12T09:44:54;102879.81;;;8.64;82.29
22206;BME280;11272;50.104;8.754;2023-02-12T09:47:56;102876.50;;;8.73;82.41
22206;BME280;11272;50.104;8.754;2023-02-12T09:50:53;102873.06;;;8.77;81.78
22206;BME280;11272;50.104;8.754;2023-02-12T09:53:22;102868.78;;;8.82;82.00
22206;BME280;11272;50.104;8.754;2023-02-12T09:55:49;102879.53;;;8.88;82.15
22206;BME280;11272;50.104;8.754;2023-02-12T10:01:10;102879.16;;;9.07;82.42
22206;BME280;11272;50.104;8.754;2023-02-12T10:03:37;102872.22;;;9.14;81.86
22206;BME280;11272;50.104;8.754;2023-02-12T10:06:11;102871.47;;;9.19;81.24
22206;BME280;11272;50.104;8.754;2023-02-12T10:14:49;102876.28;;;9.36;80.71
22206;BME280;11272;50.104;8.754;2023-02-12T10:25:58;102869.50;;;9.90;80.72
22206;BME280;11272;50.104;8.754;2023-02-12T10:28:32;102858.38;;;10.08;80.48
22206;BME280;11272;50.104;8.754;2023-02-12T10:31:28;102864.97;;;10.27;80.49
22206;BME280;11272;50.104;8.754;2023-02-12T10:33:55;102871.47;;;10.42;80.03
22206;BME280;11272;50.104;8.754;2023-02-12T10:36:44;102865.63;;;10.63;79.83
22206;BME280;11272;50.104;8.754;2023-02-12T10:41:47;102853.25;;;11.18;78.76
22206;BME280;11272;50.104;8.754;2023-02-12T10:44:14;102860.69;;;11.40;78.31
22206;BME280;11272;50.104;8.754;2023-02-12T10:46:40;102856.47;;;11.56;77.54
22206;BME280;11272;50.104;8.754;2023-02-12T10:49:07;102856.69;;;11.72;76.85
22206;BME280;11272;50.104;8.754;2023-02-12T10:51:55;102848.09;;;11.93;75.62
22206;BME280;11272;50.104;8.754;2023-02-12T10:54:42;102834.13;;;12.11;75.09
22206;BME280;11272;50.104;8.754;2023-02-12T10:57:21;102836.94;;;12.29;74.16
22206;BME280;11272;50.104;8.754;2023-02-12T10:59:50;102832.69;;;12.46;73.79
22206;BME280;11272;50.104;8.754;2023-02-12T11:02:26;102836.41;;;12.63;72.47
22206;BME280;11272;50.104;8.754;2023-02-12T11:04:53;102829.34;;;12.72;71.72
22206;BME280;11272;50.104;8.754;2023-02-12T11:07:21;102830.31;;;12.77;71.06
22206;BME280;11272;50.104;8.754;2023-02-12T11:09:49;102817.94;;;12.86;70.47
22206;BME280;11272;50.104;8.754;2023-02-12T11:12:34;102812.75;;;13.03;69.73
22206;BME280;11272;50.104;8.754;2023-02-12T11:15:13;102811.09;;;13.20;69.30
22206;BME280;11272;50.104;8.754;2023-02-12T11:17:42;102808.44;;;13.26;68.42
22206;BME280;11272;50.104;8.754;2023-02-12T11:22:50;102802.16;;;13.15;67.12
22206;BME280;11272;50.104;8.754;2023-02-12T11:25:16;102806.50;;;13.05;66.81
22206;BME280;11272;50.104;8.754;2023-02-12T11:27:42;102806.47;;;12.96;66.21
22206;BME280;11272;50.104;8.754;2023-02-12T11:30:22;102805.41;;;12.78;66.54
22206;BME280;11272;50.104;8.754;2023-02-12T11:32:47;102799.19;;;12.76;66.44
22206;BME280;11272;50.104;8.754;2023-02-12T11:35:20;102802.78;;;12.81;65.94
22206;BME280;11272;50.104;8.754;2023-02-12T11:37:56;102801.91;;;12.82;65.81
22206;BME280;11272;50.104;8.754;2023-02-12T11:40:29;102793.94;;;12.89;65.66
22206;BME280;11272;50.104;8.754;2023-02-12T11:43:01;102793.94;;;12.86;64.82
22206;BME280;11272;50.104;8.754;2023-02-12T11:45:43;102802.81;;;12.88;65.05
22206;BME280;11272;50.104;8.754;2023-02-12T11:48:21;102793.09;;;12.93;64.91
22206;BME280;11272;50.104;8.754;2023-02-12T11:50:49;102797.53;;;12.91;64.70
22206;BME280;11272;50.104;8.754;2023-02-12T11:53:23;102782.41;;;12.87;64.47
22206;BME280;11272;50.104;8.754;2023-02-12T11:55:56;102778.81;;;12.85;64.73
22206;BME280;11272;50.104;8.754;2023-02-12T11:58:24;102777.06;;;12.87;64.62
22206;BME280;11272;50.104;8.754;2023-02-12T12:01:00;102774.47;;;12.98;64.59
22206;BME280;11272;50.104;8.754;2023-02-12T12:06:04;102770.88;;;12.94;63.57
22206;BME280;11272;50.104;8.754;2023-02-12T12:08:43;102767.25;;;12.82;63.38
22206;BME280;11272;50.104;8.754;2023-02-12T12:11:24;102767.25;;;12.82;63.80
22206;BME280;11272;50.104;8.754;2023-02-12T12:19:56;102769.19;;;13.10;63.80
22206;BME280;11272;50.104;8.754;2023-02-12T12:22:42;102762.19;;;13.27;63.57
22206;BME280;11272;50.104;8.754;2023-02-12T12:28:03;102757.03;;;13.61;62.95
22206;BME280;11272;50.104;8.754;2023-02-12T13:04:31;102720.69;;;14.42;59.67
22206;BME280;11272;50.104;8.754;2023-02-12T13:21:25;102709.06;;;14.44;59.25
22206;BME280;11272;50.104;8.754;2023-02-12T13:24:02;102709.06;;;14.55;59.58
22206;BME280;11272;50.104;8.754;2023-02-12T13:26:43;102702.78;;;14.69;59.29
22206;BME280;11272;50.104;8.754;2023-02-12T13:29:26;102711.72;;;14.67;58.85
22206;BME280;11272;50.104;8.754;2023-02-12T13:31:56;102713.50;;;14.60;58.69
22206;BME280;11272;50.104;8.754;2023-02-12T13:34:25;102705.50;;;14.51;58.87
22206;BME280;11272;50.104;8.754;2023-02-12T13:36:54;102702.84;;;14.41;58.52
22206;BME280;11272;50.104;8.754;2023-02-12T13:45:06;102704.56;;;14.11;58.73
22206;BME280;11272;50.104;8.754;2023-02-12T13:50:22;102698.31;;;13.91;59.29
22206;BME280;11272;50.104;8.754;2023-02-12T13:53:00;102699.22;;;13.87;59.61
22206;BME280;11272;50.104;8.754;2023-02-12T13:55:56;102691.19;;;13.81;59.62
22206;BME280;11272;50.104;8.754;2023-02-12T14:00:58;102697.34;;;13.57;59.58
22206;BME280;11272;50.104;8.754;2023-02-12T14:03:25;102701.78;;;13.47;59.53
22206;BME280;11272;50.104;8.754;2023-02-12T14:06:16;102699.97;;;13.37;59.88
22206;BME280;11272;50.104;8.754;2023-02-12T14:09:09;102695.50;;;13.27;59.96
22206;BME280;11272;50.104;8.754;2023-02-12T14:11:47;102700.81;;;13.18;60.10
22206;BME280;11272;50.104;8.754;2023-02-12T14:14:33;102697.16;;;13.07;60.23
22206;BME280;11272;50.104;8.754;2023-02-12T14:25:00;102704.91;;;12.68;61.10
22206;BME280;11272;50.104;8.754;2023-02-12T14:27:36;102706.63;;;12.61;61.34
22206;BME280;11272;50.104;8.754;2023-02-12T14:37:56;102695.91;;;12.47;61.85
22206;BME280;11272;50.104;8.754;2023-02-12T14:42:57;102695.88;;;12.44;61.95
22206;BME280;11272;50.104;8.754;2023-02-12T14:45:34;102689.63;;;12.41;61.95
22206;BME280;11272;50.104;8.754;2023-02-12T14:48:37;102693.13;;;12.34;62.45
22206;BME280;11272;50.104;8.754;2023-02-12T14:51:03;102687.75;;;12.29;62.64
22206;BME280;11272;50.104;8.754;2023-02-12T14:53:34;102693.03;;;12.24;62.83
22206;BME280;11272;50.104;8.754;2023-02-12T14:56:02;102692.13;;;12.21;63.03
22206;BME280;11272;50.104;8.754;2023-02-12T14:58:30;102693.00;;;12.20;63.18
22206;BME280;11272;50.104;8.754;2023-02-12T15:00:59;102685.00;;;12.17;62.98
22206;BME280;11272;50.104;8.754;2023-02-12T15:03:37;102687.63;;;12.14;63.08
22206;BME280;11272;50.104;8.754;2023-02-12T15:08:47;102689.38;;;12.10;63.82
22206;BME280;11272;50.104;8.754;2023-02-12T15:14:05;102682.16;;;11.96;63.70
22206;BME280;11272;50.104;8.754;2023-02-12T15:19:48;102684.78;;;11.91;64.09
22206;BME280;11272;50.104;8.754;2023-02-12T15:22:26;102678.56;;;11.91;63.93
22206;BME280;11272;50.104;8.754;2023-02-12T15:25:27;102674.97;;;11.89;64.00
22206;BME280;11272;50.104;8.754;2023-02-12T15:28:03;102670.50;;;11.85;64.09
22206;BME280;11272;50.104;8.754;2023-02-12T15:30:35;102666.91;;;11.81;64.47
22206;BME280;11272;50.104;8.754;2023-02-12T15:33:04;102674.91;;;11.81;64.62
22206;BME280;11272;50.104;8.754;2023-02-12T15:35:35;102669.53;;;11.76;64.72
22206;BME280;11272;50.104;8.754;2023-02-12T15:38:02;102671.31;;;11.74;64.85
22206;BME280;11272;50.104;8.754;2023-02-12T15:40:32;102674.75;;;11.70;64.99
22206;BME280;11272;50.104;8.754;2023-02-12T15:43:05;102676.53;;;11.68;64.79
22206;BME280;11272;50.104;8.754;2023-02-12T15:45:33;102669.38;;;11.63;64.95
22206;BME280;11272;50.104;8.754;2023-02-12T15:50:44;102669.28;;;11.55;65.25
22206;BME280;11272;50.104;8.754;2023-02-12T15:53:11;102663.00;;;11.50;65.17
22206;BME280;11272;50.104;8.754;2023-02-12T15:55:41;102669.19;;;11.46;65.56
22206;BME280;11272;50.104;8.754;2023-02-12T15:58:26;102664.72;;;11.45;65.66